createdAt,value
2019-01-20T00:00:19.871Z,-5.91
2019-01-20T00:02:47.634Z,-5.92
2019-01-20T00:05:15.956Z,-5.81
2019-01-20T00:07:43.629Z,-5.95
2019-01-20T00:10:11.469Z,-6.06
2019-01-20T00:12:38.976Z,-6.03
2019-01-20T00:15:07.272Z,-6.11
2019-01-20T00:17:35.117Z,-6.05
2019-01-20T00:20:03.802Z,-6.10
2019-01-20T00:22:31.608Z,-6.08
2019-01-20T00:24:59.175Z,-6.03
2019-01-20T00:27:27.222Z,-6.11
2019-01-20T00:29:55.331Z,-6.04
2019-01-20T00:32:23.009Z,-6.08
2019-01-20T00:34:50.570Z,-6.08
2019-01-20T00:37:18.397Z,-6.11
2019-01-20T00:39:45.999Z,-6.07
2019-01-20T00:42:13.599Z,-6.05
2019-01-20T00:44:41.536Z,-6.12
2019-01-20T00:47:09.373Z,-6.09
2019-01-20T00:49:37.292Z,-6.11
2019-01-20T00:52:05.070Z,-6.10
2019-01-20T00:54:32.737Z,-5.98
2019-01-20T00:57:00.053Z,-6.16
2019-01-20T00:59:27.611Z,-6.22
2019-01-20T01:01:54.961Z,-6.22
2019-01-20T01:04:22.416Z,-6.20
2019-01-20T01:06:50.067Z,-6.13
2019-01-20T01:09:17.734Z,-6.30
2019-01-20T01:11:45.134Z,-6.19
2019-01-20T01:14:12.934Z,-6.30
2019-01-20T01:16:40.570Z,-6.15
2019-01-20T01:19:08.625Z,-6.17
2019-01-20T01:21:39.867Z,-6.19
2019-01-20T01:24:07.890Z,-6.22
2019-01-20T01:26:36.829Z,-6.18
2019-01-20T01:29:04.452Z,-6.20
2019-01-20T01:31:32.409Z,-6.12
2019-01-20T01:33:59.800Z,-6.11
2019-01-20T01:36:27.063Z,-6.21
2019-01-20T01:38:55.264Z,-6.26
2019-01-20T01:41:22.747Z,-6.26
2019-01-20T01:43:50.246Z,-6.22
2019-01-20T01:46:17.631Z,-6.29
2019-01-20T01:48:45.791Z,-6.34
2019-01-20T01:51:13.749Z,-6.25
2019-01-20T01:53:41.119Z,-6.33
2019-01-20T01:56:08.587Z,-6.37
2019-01-20T01:58:35.716Z,-6.23
2019-01-20T02:01:04.012Z,-6.25
2019-01-20T02:03:31.636Z,-6.20
2019-01-20T02:05:59.314Z,-6.26
2019-01-20T02:08:27.374Z,-6.22
2019-01-20T02:10:55.035Z,-6.31
2019-01-20T02:13:23.464Z,-6.32
2019-01-20T02:15:51.612Z,-6.22
2019-01-20T02:18:19.244Z,-6.21
2019-01-20T02:20:46.719Z,-6.32
2019-01-20T02:23:14.209Z,-6.30
2019-01-20T02:25:45.577Z,-6.30
2019-01-20T02:28:12.962Z,-6.34
2019-01-20T02:30:40.874Z,-6.42
2019-01-20T02:33:08.876Z,-6.44
2019-01-20T02:35:37.203Z,-6.47
2019-01-20T02:38:05.010Z,-6.46
2019-01-20T02:40:32.485Z,-6.50
2019-01-20T02:42:59.730Z,-6.43
2019-01-20T02:45:26.976Z,-6.47
2019-01-20T02:47:54.364Z,-6.46
2019-01-20T02:50:22.498Z,-6.42
2019-01-20T02:52:50.548Z,-6.49
2019-01-20T02:55:18.545Z,-6.26
2019-01-20T02:57:46.615Z,-6.43
2019-01-20T03:00:18.414Z,-6.56
2019-01-20T03:02:46.010Z,-6.54
2019-01-20T03:05:15.901Z,-6.42
2019-01-20T03:07:43.270Z,-6.42
2019-01-20T03:10:10.934Z,-6.54
2019-01-20T03:12:38.967Z,-6.52
2019-01-20T03:15:08.127Z,-6.53
2019-01-20T03:17:36.089Z,-6.58
2019-01-20T03:20:07.277Z,-6.67
2019-01-20T03:22:35.220Z,-6.73
2019-01-20T03:25:03.970Z,-6.78
2019-01-20T03:27:31.448Z,-6.70
2019-01-20T03:29:59.495Z,-6.67
2019-01-20T03:32:26.764Z,-6.78
2019-01-20T03:34:54.333Z,-6.75
2019-01-20T03:37:21.997Z,-6.74
2019-01-20T03:39:49.316Z,-6.75
2019-01-20T03:42:16.506Z,-6.71
2019-01-20T03:44:43.782Z,-6.62
2019-01-20T03:47:11.403Z,-6.74
2019-01-20T03:49:38.560Z,-6.71
2019-01-20T03:52:06.432Z,-6.55
2019-01-20T03:54:34.652Z,-6.62
2019-01-20T03:57:02.416Z,-6.64
2019-01-20T03:59:30.188Z,-6.67
2019-01-20T04:01:57.462Z,-6.73
2019-01-20T04:04:24.794Z,-6.71
2019-01-20T04:06:52.205Z,-6.69
2019-01-20T04:09:19.869Z,-6.60
2019-01-20T04:11:50.513Z,-6.58
2019-01-20T04:14:18.248Z,-6.65
2019-01-20T04:16:45.779Z,-6.63
2019-01-20T04:19:13.241Z,-6.69
2019-01-20T04:21:40.825Z,-6.73
2019-01-20T04:24:08.570Z,-6.56
2019-01-20T04:26:36.954Z,-6.56
2019-01-20T04:29:04.575Z,-6.49
2019-01-20T04:31:32.835Z,-6.69
2019-01-20T04:34:00.163Z,-6.75
2019-01-20T04:36:28.173Z,-6.74
2019-01-20T04:38:55.937Z,-6.84
2019-01-20T04:41:23.309Z,-6.82
2019-01-20T04:43:50.768Z,-6.74
2019-01-20T04:46:18.271Z,-6.75
2019-01-20T04:48:45.772Z,-6.74
2019-01-20T04:51:13.254Z,-6.83
2019-01-20T04:53:41.162Z,-6.77
2019-01-20T04:56:09.213Z,-6.85
2019-01-20T04:58:36.732Z,-6.82
2019-01-20T05:01:04.493Z,-6.88
2019-01-20T05:03:31.852Z,-6.87
2019-01-20T05:05:59.242Z,-6.83
2019-01-20T05:08:27.321Z,-6.98
2019-01-20T05:10:55.306Z,-7.09
2019-01-20T05:13:23.035Z,-7.02
2019-01-20T05:15:54.443Z,-7.05
2019-01-20T05:18:22.258Z,-7.05
2019-01-20T05:20:49.918Z,-7.07
2019-01-20T05:23:17.695Z,-7.11
2019-01-20T05:25:45.074Z,-7.08
2019-01-20T05:28:12.619Z,-7.24
2019-01-20T05:30:40.961Z,-7.12
2019-01-20T05:33:08.325Z,-7.02
2019-01-20T05:35:35.627Z,-7.20
2019-01-20T05:38:03.734Z,-7.23
2019-01-20T05:40:31.063Z,-7.13
2019-01-20T05:42:59.030Z,-7.22
2019-01-20T05:45:26.464Z,-7.21
2019-01-20T05:47:53.954Z,-7.24
2019-01-20T05:50:21.653Z,-7.21
2019-01-20T05:52:49.397Z,-7.16
2019-01-20T05:55:16.840Z,-7.21
2019-01-20T05:57:45.011Z,-7.25
2019-01-20T06:00:38.405Z,-7.27
2019-01-20T06:03:06.628Z,-7.28
2019-01-20T06:05:34.711Z,-7.25
2019-01-20T06:08:02.629Z,-7.34
2019-01-20T06:10:30.389Z,-7.30
2019-01-20T06:12:58.527Z,-7.27
2019-01-20T06:15:26.337Z,-7.26
2019-01-20T06:17:53.783Z,-7.35
2019-01-20T06:20:22.567Z,-7.40
2019-01-20T06:22:50.423Z,-7.49
2019-01-20T06:25:18.357Z,-7.44
2019-01-20T06:27:46.528Z,-7.29
2019-01-20T06:30:18.109Z,-7.39
2019-01-20T06:32:45.659Z,-7.44
2019-01-20T06:35:13.925Z,-7.38
2019-01-20T06:37:41.918Z,-7.52
2019-01-20T06:40:09.543Z,-7.46
2019-01-20T06:42:36.973Z,-7.49
2019-01-20T06:45:05.657Z,-7.50
2019-01-20T06:47:33.193Z,-7.54
2019-01-20T06:50:00.468Z,-7.53
2019-01-20T06:52:27.808Z,-7.54
2019-01-20T06:54:55.473Z,-7.52
2019-01-20T06:57:23.382Z,-7.53
2019-01-20T06:59:51.440Z,-7.51
2019-01-20T07:02:19.001Z,-7.45
2019-01-20T07:04:46.680Z,-7.45
2019-01-20T07:07:14.466Z,-7.45
2019-01-20T07:09:42.479Z,-7.50
2019-01-20T07:12:10.304Z,-7.53
2019-01-20T07:14:37.498Z,-7.52
2019-01-20T07:17:05.353Z,-7.55
2019-01-20T07:19:33.063Z,-7.55
2019-01-20T07:22:00.350Z,-7.45
2019-01-20T07:24:27.694Z,-7.55
2019-01-20T07:26:59.870Z,-7.48
2019-01-20T07:29:30.780Z,-7.46
2019-01-20T07:31:58.574Z,-7.52
2019-01-20T07:34:27.524Z,-7.50
2019-01-20T07:36:55.121Z,-7.49
2019-01-20T07:39:23.480Z,-7.39
2019-01-20T07:41:50.779Z,-7.44
2019-01-20T07:44:20.499Z,-7.29
2019-01-20T07:46:49.933Z,-7.37
2019-01-20T07:49:17.221Z,-7.33
2019-01-20T07:51:45.493Z,-7.32
2019-01-20T07:54:13.067Z,-7.24
2019-01-20T07:56:40.706Z,-7.23
2019-01-20T07:59:08.311Z,-7.19
2019-01-20T08:01:36.029Z,-7.10
2019-01-20T08:04:03.756Z,-7.12
2019-01-20T08:06:31.609Z,-7.07
2019-01-20T08:08:58.994Z,-7.00
2019-01-20T08:11:27.039Z,-6.89
2019-01-20T08:13:54.822Z,-6.76
2019-01-20T08:16:22.206Z,-6.66
2019-01-20T08:18:50.310Z,-6.50
2019-01-20T08:21:17.956Z,-6.31
2019-01-20T08:23:45.955Z,-6.18
2019-01-20T08:26:14.065Z,-5.93
2019-01-20T08:28:42.779Z,-5.89
2019-01-20T08:31:10.979Z,-5.80
2019-01-20T08:33:39.451Z,-5.61
2019-01-20T08:36:06.999Z,-5.56
2019-01-20T08:38:34.633Z,-5.33
2019-01-20T08:41:02.157Z,-5.31
2019-01-20T08:43:31.967Z,-5.14
2019-01-20T08:46:36.538Z,-5.00
2019-01-20T08:49:04.495Z,-4.88
2019-01-20T08:51:33.493Z,-4.75
2019-01-20T08:54:00.753Z,-4.63
2019-01-20T08:56:28.371Z,-4.46
2019-01-20T08:58:56.423Z,-4.23
2019-01-20T09:01:24.205Z,-4.05
2019-01-20T09:03:53.859Z,-3.89
2019-01-20T09:06:21.598Z,-3.74
2019-01-20T09:08:49.901Z,-3.46
2019-01-20T09:11:17.478Z,-3.25
2019-01-20T09:13:45.809Z,-3.12
2019-01-20T09:16:13.343Z,-2.83
2019-01-20T09:18:41.353Z,-2.38
2019-01-20T09:21:08.968Z,-2.16
2019-01-20T09:23:37.043Z,-1.73
2019-01-20T09:26:04.823Z,-1.69
2019-01-20T09:28:32.333Z,-1.50
2019-01-20T09:30:59.702Z,-1.33
2019-01-20T09:33:27.185Z,-1.21
2019-01-20T09:35:55.937Z,-1.12
2019-01-20T09:38:24.026Z,-1.02
2019-01-20T09:40:51.593Z,-0.88
2019-01-20T09:43:19.137Z,-0.76
2019-01-20T09:45:47.193Z,-0.63
2019-01-20T09:48:15.107Z,-0.60
2019-01-20T09:50:42.805Z,-0.43
2019-01-20T09:53:10.491Z,-0.21
2019-01-20T09:55:37.764Z,-0.15
2019-01-20T09:58:11.277Z,0.00
2019-01-20T10:00:39.210Z,0.34
2019-01-20T10:03:07.279Z,0.40
2019-01-20T10:05:35.253Z,0.75
2019-01-20T10:08:04.403Z,0.90
2019-01-20T10:10:36.064Z,1.09
2019-01-20T10:13:10.387Z,1.11
2019-01-20T10:15:37.954Z,1.17
2019-01-20T10:18:08.072Z,1.19
2019-01-20T10:20:35.854Z,1.35
2019-01-20T10:23:05.000Z,1.40
2019-01-20T10:25:32.538Z,1.40
2019-01-20T10:27:59.791Z,1.45
2019-01-20T10:30:32.707Z,1.67
2019-01-20T10:33:00.811Z,1.73
2019-01-20T10:35:52.469Z,1.84
2019-01-20T10:38:22.240Z,2.09
2019-01-20T10:40:50.005Z,2.29
2019-01-20T10:43:17.717Z,2.72
2019-01-20T10:45:45.426Z,2.81
2019-01-20T10:48:13.206Z,2.82
2019-01-20T10:50:41.253Z,2.84
2019-01-20T10:53:09.319Z,2.97
2019-01-20T10:55:36.882Z,3.22
2019-01-20T10:58:07.911Z,3.47
2019-01-20T11:00:38.229Z,3.77
2019-01-20T11:03:06.615Z,3.75
2019-01-20T11:05:34.582Z,3.61
2019-01-20T11:08:02.511Z,3.45
2019-01-20T11:10:30.340Z,4.00
2019-01-20T11:12:58.915Z,3.81
2019-01-20T11:15:26.423Z,3.64
2019-01-20T11:17:54.884Z,3.75
2019-01-20T11:20:23.130Z,3.75
2019-01-20T11:22:51.261Z,3.79
2019-01-20T11:25:23.181Z,3.87
2019-01-20T11:27:50.691Z,3.92
2019-01-20T11:30:18.959Z,3.72
2019-01-20T11:32:47.065Z,3.68
2019-01-20T11:35:18.617Z,3.97
2019-01-20T11:37:47.229Z,3.81
2019-01-20T11:40:14.744Z,3.90
2019-01-20T11:42:42.846Z,3.92
2019-01-20T11:45:18.850Z,3.90
2019-01-20T11:47:47.033Z,3.79
2019-01-20T11:50:15.484Z,3.69
2019-01-20T11:52:44.133Z,3.59
2019-01-20T11:55:15.250Z,3.67
2019-01-20T11:57:43.581Z,3.34
2019-01-20T12:00:30.583Z,3.48
2019-01-20T12:03:03.185Z,3.13
2019-01-20T12:05:35.219Z,3.06
2019-01-20T12:08:05.185Z,2.94
2019-01-20T12:10:33.217Z,2.81
2019-01-20T12:13:04.210Z,2.53
2019-01-20T12:15:31.888Z,2.42
2019-01-20T12:17:59.554Z,2.41
2019-01-20T12:20:27.020Z,2.29
2019-01-20T12:22:57.439Z,2.13
2019-01-20T12:25:24.953Z,2.12
2019-01-20T12:27:52.544Z,1.75
2019-01-20T12:30:23.018Z,1.69
2019-01-20T12:32:51.099Z,1.54
2019-01-20T12:35:18.575Z,1.51
2019-01-20T12:37:46.982Z,1.43
2019-01-20T12:40:25.668Z,1.26
2019-01-20T12:42:53.458Z,1.34
2019-01-20T12:45:22.425Z,1.21
2019-01-20T12:47:50.674Z,1.09
2019-01-20T12:50:18.930Z,1.19
2019-01-20T12:52:46.802Z,1.03
2019-01-20T12:55:19.688Z,0.96
2019-01-20T12:57:47.796Z,1.00
2019-01-20T13:00:19.365Z,0.79
2019-01-20T13:02:46.995Z,0.84
2019-01-20T13:05:18.076Z,0.78
2019-01-20T13:07:46.626Z,0.72
2019-01-20T13:10:15.828Z,0.78
2019-01-20T13:12:43.895Z,0.74
2019-01-20T13:15:15.605Z,0.73
2019-01-20T13:17:43.133Z,0.80
2019-01-20T13:20:14.854Z,0.73
2019-01-20T13:22:42.357Z,0.70
2019-01-20T13:25:14.226Z,0.74
2019-01-20T13:27:42.557Z,0.67
2019-01-20T13:30:15.159Z,0.68
2019-01-20T13:32:42.938Z,0.72
2019-01-20T13:35:10.895Z,0.65
2019-01-20T13:37:42.316Z,0.64
2019-01-20T13:40:14.929Z,0.66
2019-01-20T13:42:42.634Z,0.63
2019-01-20T13:45:11.227Z,0.68
2019-01-20T13:47:48.693Z,0.72
2019-01-20T13:50:15.439Z,0.73
2019-01-20T13:52:43.294Z,0.79
2019-01-20T13:55:13.821Z,0.69
2019-01-20T13:57:41.596Z,0.71
2019-01-20T14:00:16.975Z,0.73
2019-01-20T14:02:46.972Z,0.71
2019-01-20T14:05:14.778Z,0.68
2019-01-20T14:07:44.312Z,0.74
2019-01-20T14:10:14.806Z,0.71
2019-01-20T14:12:42.074Z,0.75
2019-01-20T14:15:12.586Z,0.67
2019-01-20T14:17:40.842Z,0.61
2019-01-20T14:20:18.304Z,0.71
2019-01-20T14:22:47.810Z,0.67
2019-01-20T14:25:19.663Z,0.61
2019-01-20T14:27:47.410Z,0.54
2019-01-20T14:30:29.325Z,0.74
2019-01-20T14:32:56.789Z,0.68
2019-01-20T14:35:24.179Z,0.65
2019-01-20T14:37:52.265Z,0.63
2019-01-20T14:40:20.017Z,0.63
2019-01-20T14:42:47.621Z,0.55
2019-01-20T14:45:15.602Z,0.54
2019-01-20T14:47:43.121Z,0.53
2019-01-20T14:50:17.895Z,0.56
2019-01-20T14:52:45.582Z,0.54
2019-01-20T14:55:13.339Z,0.54
2019-01-20T14:57:40.883Z,0.49
2019-01-20T15:00:17.402Z,0.47
2019-01-20T15:02:44.841Z,0.43
2019-01-20T15:05:13.516Z,0.42
2019-01-20T15:07:41.299Z,0.32
2019-01-20T15:10:10.068Z,0.21
2019-01-20T15:12:37.716Z,0.24
2019-01-20T15:15:08.931Z,0.19
2019-01-20T15:17:36.301Z,0.15
2019-01-20T15:20:05.966Z,0.16
2019-01-20T15:22:33.865Z,0.12
2019-01-20T15:25:01.147Z,0.03
2019-01-20T15:27:28.490Z,0.01
2019-01-20T15:29:56.042Z,-0.10
2019-01-20T15:32:24.434Z,-0.14
2019-01-20T15:34:52.311Z,-0.18
2019-01-20T15:37:20.071Z,-0.28
2019-01-20T15:39:47.674Z,-0.35
2019-01-20T15:42:15.914Z,-0.41
2019-01-20T15:44:44.170Z,-0.43
2019-01-20T15:47:12.008Z,-0.49
2019-01-20T15:49:39.771Z,-0.64
2019-01-20T15:52:07.266Z,-0.79
2019-01-20T15:54:37.166Z,-0.84
2019-01-20T15:57:04.691Z,-0.77
2019-01-20T15:59:32.210Z,-0.90
2019-01-20T16:01:59.728Z,-0.89
2019-01-20T16:04:27.931Z,-0.97
2019-01-20T16:06:55.568Z,-1.10
2019-01-20T16:09:23.168Z,-1.17
2019-01-20T16:11:51.168Z,-1.24
2019-01-20T16:14:18.274Z,-1.31
2019-01-20T16:16:45.884Z,-1.41
2019-01-20T16:19:13.641Z,-1.53
2019-01-20T16:21:42.681Z,-1.63
2019-01-20T16:24:10.523Z,-1.69
2019-01-20T16:26:39.018Z,-1.69
2019-01-20T16:29:07.187Z,-1.83
2019-01-20T16:31:39.774Z,-1.80
2019-01-20T16:34:07.018Z,-1.91
2019-01-20T16:36:34.659Z,-1.96
2019-01-20T16:39:03.951Z,-1.99
2019-01-20T16:41:31.188Z,-2.10
2019-01-20T16:43:58.590Z,-2.06
2019-01-20T16:46:26.292Z,-1.97
2019-01-20T16:48:53.925Z,-2.14
2019-01-20T16:51:36.443Z,-2.15
2019-01-20T16:54:04.664Z,-2.19
2019-01-20T16:56:32.497Z,-2.15
2019-01-20T16:58:59.959Z,-2.39
2019-01-20T17:01:27.424Z,-2.38
2019-01-20T17:03:55.161Z,-2.40
2019-01-20T17:06:23.037Z,-2.48
2019-01-20T17:08:50.994Z,-2.48
2019-01-20T17:11:18.254Z,-2.51
2019-01-20T17:13:45.786Z,-2.60
2019-01-20T17:16:13.177Z,-2.59
2019-01-20T17:18:40.874Z,-2.63
2019-01-20T17:21:09.543Z,-2.72
2019-01-20T17:23:37.439Z,-2.73
2019-01-20T17:26:05.045Z,-2.77
2019-01-20T17:28:32.189Z,-2.80
2019-01-20T17:30:59.806Z,-2.83
2019-01-20T17:33:27.493Z,-2.93
2019-01-20T17:35:55.423Z,-3.07
2019-01-20T17:38:23.088Z,-3.07
2019-01-20T17:40:50.725Z,-2.95
2019-01-20T17:43:18.523Z,-3.05
2019-01-20T17:45:48.596Z,-3.13
2019-01-20T17:48:15.589Z,-3.04
2019-01-20T17:50:44.242Z,-2.99
2019-01-20T17:53:12.400Z,-3.19
2019-01-20T17:55:40.412Z,-3.27
2019-01-20T17:58:07.939Z,-3.18
2019-01-20T18:00:39.136Z,-3.25
2019-01-20T18:03:06.977Z,-3.26
2019-01-20T18:05:35.169Z,-3.15
2019-01-20T18:08:03.513Z,-3.23
2019-01-20T18:10:30.979Z,-3.21
2019-01-20T18:12:58.728Z,-3.35
2019-01-20T18:15:26.401Z,-3.38
2019-01-20T18:17:53.905Z,-3.46
2019-01-20T18:20:24.338Z,-3.54
2019-01-20T18:22:52.147Z,-3.37
2019-01-20T18:25:20.464Z,-3.51
2019-01-20T18:27:47.950Z,-3.51
2019-01-20T18:30:20.453Z,-3.43
2019-01-20T18:32:48.312Z,-3.36
2019-01-20T18:35:15.796Z,-3.31
2019-01-20T18:37:43.448Z,-3.39
2019-01-20T18:40:14.612Z,-3.51
2019-01-20T18:42:42.255Z,-3.63
2019-01-20T18:45:12.888Z,-3.78
2019-01-20T18:47:40.993Z,-3.67
2019-01-20T18:50:11.415Z,-3.76
2019-01-20T18:52:43.387Z,-3.80
2019-01-20T18:55:12.201Z,-4.01
2019-01-20T18:57:39.827Z,-3.94
2019-01-20T19:00:18.758Z,-4.06
2019-01-20T19:02:46.225Z,-4.06
2019-01-20T19:05:14.648Z,-4.08
2019-01-20T19:07:42.732Z,-4.12
2019-01-20T19:10:12.497Z,-4.02
2019-01-20T19:12:39.889Z,-4.17
2019-01-20T19:15:09.697Z,-4.17
2019-01-20T19:17:37.313Z,-4.30
2019-01-20T19:20:07.708Z,-4.36
2019-01-20T19:22:35.102Z,-4.22
2019-01-20T19:25:05.319Z,-4.29
2019-01-20T19:27:32.856Z,-4.30
2019-01-20T19:30:00.877Z,-4.25
2019-01-20T19:32:28.846Z,-4.23
2019-01-20T19:34:56.407Z,-4.31
2019-01-20T19:37:23.796Z,-4.27
2019-01-20T19:39:51.845Z,-4.35
2019-01-20T19:42:19.986Z,-4.49
2019-01-20T19:44:47.693Z,-4.56
2019-01-20T19:47:15.312Z,-4.58
2019-01-20T19:49:43.789Z,-4.62
2019-01-20T19:52:11.205Z,-4.58
2019-01-20T19:54:38.840Z,-4.65
2019-01-20T19:57:06.674Z,-4.63
2019-01-20T19:59:34.029Z,-4.65
2019-01-20T20:02:02.074Z,-4.71
2019-01-20T20:04:29.867Z,-4.81
2019-01-20T20:06:58.027Z,-4.79
2019-01-20T20:09:26.320Z,-4.69
2019-01-20T20:11:53.582Z,-4.76
2019-01-20T20:14:21.141Z,-4.76
2019-01-20T20:16:48.812Z,-4.75
2019-01-20T20:19:16.058Z,-4.82
2019-01-20T20:21:44.186Z,-4.89
2019-01-20T20:24:11.735Z,-4.89
2019-01-20T20:26:39.351Z,-4.91
2019-01-20T20:29:06.906Z,-4.85
2019-01-20T20:31:34.719Z,-4.90
2019-01-20T20:34:02.094Z,-4.93
2019-01-20T20:36:29.482Z,-4.90
2019-01-20T20:38:57.413Z,-4.96
2019-01-20T20:41:26.038Z,-5.01
2019-01-20T20:43:53.788Z,-4.93
2019-01-20T20:46:21.380Z,-5.04
2019-01-20T20:48:48.640Z,-5.11
2019-01-20T20:51:16.393Z,-5.11
2019-01-20T20:53:44.078Z,-5.21
2019-01-20T20:56:11.996Z,-5.27
2019-01-20T20:58:39.825Z,-5.24
2019-01-20T21:01:07.190Z,-5.31
2019-01-20T21:03:37.460Z,-5.22
2019-01-20T21:06:04.998Z,-5.20
2019-01-20T21:08:32.897Z,-5.39
2019-01-20T21:11:00.270Z,-5.34
2019-01-20T21:13:27.891Z,-5.34
2019-01-20T21:15:55.277Z,-5.46
2019-01-20T21:18:22.649Z,-5.52
2019-01-20T21:20:50.010Z,-5.53
2019-01-20T21:23:19.012Z,-5.53
2019-01-20T21:25:46.733Z,-5.52
2019-01-20T21:28:14.599Z,-5.61
2019-01-20T21:30:44.562Z,-5.62
2019-01-20T21:33:12.360Z,-5.63
2019-01-20T21:35:39.822Z,-5.66
2019-01-20T21:38:07.393Z,-5.74
2019-01-20T21:40:35.050Z,-5.71
2019-01-20T21:43:03.503Z,-5.78
2019-01-20T21:45:31.147Z,-5.72
2019-01-20T21:47:58.659Z,-5.76
2019-01-20T21:50:29.090Z,-5.88
2019-01-20T21:52:57.126Z,-5.94
2019-01-20T21:55:24.584Z,-5.90
2019-01-20T21:57:52.621Z,-5.85
2019-01-20T22:00:22.839Z,-5.85
2019-01-20T22:02:50.891Z,-5.78
2019-01-20T22:05:18.612Z,-5.63
2019-01-20T22:07:46.850Z,-5.65
2019-01-20T22:10:17.477Z,-5.66
2019-01-20T22:12:44.988Z,-5.56
2019-01-20T22:15:13.000Z,-5.63
2019-01-20T22:17:40.618Z,-5.60
2019-01-20T22:20:12.567Z,-5.59
2019-01-20T22:22:40.480Z,-5.71
2019-01-20T22:25:08.611Z,-5.87
2019-01-20T22:27:36.031Z,-5.95
2019-01-20T22:30:08.821Z,-5.97
2019-01-20T22:32:35.964Z,-6.00
2019-01-20T22:35:05.428Z,-6.02
2019-01-20T22:37:33.403Z,-6.13
2019-01-20T22:40:01.111Z,-6.13
2019-01-20T22:42:28.958Z,-6.20
2019-01-20T22:44:56.325Z,-6.25
2019-01-20T22:47:24.093Z,-6.33
2019-01-20T22:49:51.960Z,-6.37
2019-01-20T22:52:19.743Z,-6.43
2019-01-20T22:54:48.927Z,-6.44
2019-01-20T22:57:17.564Z,-6.43
2019-01-20T22:59:45.524Z,-6.43
2019-01-20T23:02:13.088Z,-6.43
2019-01-20T23:04:43.689Z,-6.43
2019-01-20T23:07:12.308Z,-6.48
2019-01-20T23:09:40.649Z,-6.53
2019-01-20T23:12:08.462Z,-6.53
2019-01-20T23:14:39.653Z,-6.53
2019-01-20T23:17:07.919Z,-6.51
2019-01-20T23:19:35.949Z,-6.56
2019-01-20T23:22:04.248Z,-6.50
2019-01-20T23:24:31.852Z,-6.56
2019-01-20T23:26:59.431Z,-6.64
2019-01-20T23:29:34.003Z,-6.64
2019-01-20T23:32:11.873Z,-6.60
2019-01-20T23:34:41.345Z,-6.63
2019-01-20T23:37:10.253Z,-6.49
2019-01-20T23:39:38.134Z,-6.65
2019-01-20T23:42:05.758Z,-6.66
2019-01-20T23:44:33.410Z,-6.76
2019-01-20T23:47:00.665Z,-6.70
2019-01-20T23:49:28.222Z,-6.72
2019-01-20T23:51:55.961Z,-6.76
2019-01-20T23:54:23.498Z,-6.74
2019-01-20T23:56:51.232Z,-6.64
2019-01-20T23:59:18.962Z,-6.67
